sensor_id;sensor_type;location;lat;lon;timestamp;P1;durP1;ratioP1;P2;durP2;ratioP2
40945;SDS011;55635;50.264;11.918;2023-07-20T00:00:39;7.18;;;4.28;;
40945;SDS011;55635;50.264;11.918;2023-07-20T00:03:20;5.18;;;4.25;;
40945;SDS011;55635;50.264;11.918;2023-07-20T00:06:05;8.20;;;4.20;;
40945;SDS011;55635;50.264;11.918;2023-07-20T00:08:45;6.38;;;4.03;;
40945;SDS011;55635;50.264;11.918;2023-07-20T00:11:27;4.43;;;3.63;;
40945;SDS011;55635;50.264;11.918;2023-07-20T00:14:08;6.00;;;4.57;;
40945;SDS011;55635;50.264;11.918;2023-07-20T00:16:51;9.38;;;4.50;;
40945;SDS011;55635;50.264;11.918;2023-07-20T00:19:36;4.18;;;3.72;;
40945;SDS011;55635;50.264;11.918;2023-07-20T00:22:17;5.20;;;3.42;;
40945;SDS011;55635;50.264;11.918;2023-07-20T00:24:57;5.03;;;4.38;;
40945;SDS011;55635;50.264;11.918;2023-07-20T00:27:38;8.93;;;4.40;;
40945;SDS011;55635;50.264;11.918;2023-07-20T00:30:19;7.40;;;4.28;;
40945;SDS011;55635;50.264;11.918;2023-07-20T00:33:00;5.38;;;4.00;;
40945;SDS011;55635;50.264;11.918;2023-07-20T00:35:41;9.93;;;4.30;;
40945;SDS011;55635;50.264;11.918;2023-07-20T00:38:22;8.48;;;4.68;;
40945;SDS011;55635;50.264;11.918;2023-07-20T00:41:03;8.88;;;4.78;;
40945;SDS011;55635;50.264;11.918;2023-07-20T00:43:44;11.43;;;4.75;;
40945;SDS011;55635;50.264;11.918;2023-07-20T00:46:25;9.27;;;4.90;;
40945;SDS011;55635;50.264;11.918;2023-07-20T00:49:06;4.90;;;4.40;;
40945;SDS011;55635;50.264;11.918;2023-07-20T00:51:48;9.40;;;4.43;;
40945;SDS011;55635;50.264;11.918;2023-07-20T00:54:29;8.18;;;5.50;;
40945;SDS011;55635;50.264;11.918;2023-07-20T00:57:10;6.93;;;5.05;;
40945;SDS011;55635;50.264;11.918;2023-07-20T00:59:57;11.45;;;5.22;;
40945;SDS011;55635;50.264;11.918;2023-07-20T01:02:38;13.32;;;5.72;;
40945;SDS011;55635;50.264;11.918;2023-07-20T01:05:19;14.07;;;5.40;;
40945;SDS011;55635;50.264;11.918;2023-07-20T01:08:12;7.78;;;5.60;;
40945;SDS011;55635;50.264;11.918;2023-07-20T01:14:39;13.02;;;5.68;;
40945;SDS011;55635;50.264;11.918;2023-07-20T01:17:21;10.13;;;5.00;;
40945;SDS011;55635;50.264;11.918;2023-07-20T01:20:04;7.40;;;5.15;;
40945;SDS011;55635;50.264;11.918;2023-07-20T01:26:08;10.27;;;5.30;;
40945;SDS011;55635;50.264;11.918;2023-07-20T01:32:42;8.15;;;5.20;;
40945;SDS011;55635;50.264;11.918;2023-07-20T01:35:30;7.55;;;5.38;;
40945;SDS011;55635;50.264;11.918;2023-07-20T01:38:12;9.52;;;5.63;;
40945;SDS011;55635;50.264;11.918;2023-07-20T01:40:54;12.43;;;5.88;;
40945;SDS011;55635;50.264;11.918;2023-07-20T01:43:36;9.98;;;6.00;;
40945;SDS011;55635;50.264;11.918;2023-07-20T01:46:19;8.30;;;5.38;;
40945;SDS011;55635;50.264;11.918;2023-07-20T01:48:59;8.43;;;5.68;;
40945;SDS011;55635;50.264;11.918;2023-07-20T01:51:40;6.15;;;5.03;;
40945;SDS011;55635;50.264;11.918;2023-07-20T01:54:21;8.38;;;5.28;;
40945;SDS011;55635;50.264;11.918;2023-07-20T01:57:02;10.50;;;5.50;;
40945;SDS011;55635;50.264;11.918;2023-07-20T01:59:44;9.50;;;5.25;;
40945;SDS011;55635;50.264;11.918;2023-07-20T02:02:26;10.35;;;5.20;;
40945;SDS011;55635;50.264;11.918;2023-07-20T02:05:10;8.73;;;5.60;;
40945;SDS011;55635;50.264;11.918;2023-07-20T02:07:51;7.63;;;4.85;;
40945;SDS011;55635;50.264;11.918;2023-07-20T02:10:34;9.13;;;5.88;;
40945;SDS011;55635;50.264;11.918;2023-07-20T02:13:15;7.60;;;5.20;;
40945;SDS011;55635;50.264;11.918;2023-07-20T02:15:56;12.05;;;5.75;;
40945;SDS011;55635;50.264;11.918;2023-07-20T02:18:37;8.20;;;6.15;;
40945;SDS011;55635;50.264;11.918;2023-07-20T02:21:18;10.18;;;5.60;;
40945;SDS011;55635;50.264;11.918;2023-07-20T02:23:59;12.32;;;5.45;;
40945;SDS011;55635;50.264;11.918;2023-07-20T02:26:40;8.93;;;5.60;;
40945;SDS011;55635;50.264;11.918;2023-07-20T02:29:22;10.57;;;5.90;;
40945;SDS011;55635;50.264;11.918;2023-07-20T02:32:04;14.27;;;5.90;;
40945;SDS011;55635;50.264;11.918;2023-07-20T02:34:45;8.18;;;5.80;;
40945;SDS011;55635;50.264;11.918;2023-07-20T02:37:26;8.05;;;5.90;;
40945;SDS011;55635;50.264;11.918;2023-07-20T02:40:07;9.35;;;5.32;;
40945;SDS011;55635;50.264;11.918;2023-07-20T02:42:49;11.48;;;6.03;;
40945;SDS011;55635;50.264;11.918;2023-07-20T02:45:30;7.65;;;5.78;;
40945;SDS011;55635;50.264;11.918;2023-07-20T02:48:11;12.48;;;5.75;;
40945;SDS011;55635;50.264;11.918;2023-07-20T02:50:54;8.82;;;5.80;;
40945;SDS011;55635;50.264;11.918;2023-07-20T02:53:35;10.07;;;6.03;;
40945;SDS011;55635;50.264;11.918;2023-07-20T02:56:16;15.13;;;6.63;;
40945;SDS011;55635;50.264;11.918;2023-07-20T02:58:58;12.63;;;6.18;;
40945;SDS011;55635;50.264;11.918;2023-07-20T03:01:39;10.48;;;5.60;;
40945;SDS011;55635;50.264;11.918;2023-07-20T03:04:22;12.93;;;6.43;;
40945;SDS011;55635;50.264;11.918;2023-07-20T03:07:05;6.95;;;6.25;;
40945;SDS011;55635;50.264;11.918;2023-07-20T03:09:47;13.23;;;6.38;;
40945;SDS011;55635;50.264;11.918;2023-07-20T03:12:28;7.07;;;6.00;;
40945;SDS011;55635;50.264;11.918;2023-07-20T03:15:09;7.88;;;5.43;;
40945;SDS011;55635;50.264;11.918;2023-07-20T03:17:51;8.82;;;5.55;;
40945;SDS011;55635;50.264;11.918;2023-07-20T03:20:32;13.48;;;6.07;;
40945;SDS011;55635;50.264;11.918;2023-07-20T03:23:15;8.15;;;6.75;;
40945;SDS011;55635;50.264;11.918;2023-07-20T03:25:56;9.52;;;5.75;;
40945;SDS011;55635;50.264;11.918;2023-07-20T03:28:37;10.55;;;5.45;;
40945;SDS011;55635;50.264;11.918;2023-07-20T03:31:19;13.10;;;5.90;;
40945;SDS011;55635;50.264;11.918;2023-07-20T03:34:00;7.50;;;5.10;;
40945;SDS011;55635;50.264;11.918;2023-07-20T03:36:41;12.50;;;6.03;;
40945;SDS011;55635;50.264;11.918;2023-07-20T03:39:22;7.07;;;5.22;;
40945;SDS011;55635;50.264;11.918;2023-07-20T03:42:03;11.48;;;6.57;;
40945;SDS011;55635;50.264;11.918;2023-07-20T03:44:45;13.68;;;6.00;;
40945;SDS011;55635;50.264;11.918;2023-07-20T03:47:25;8.50;;;5.85;;
40945;SDS011;55635;50.264;11.918;2023-07-20T03:50:07;8.10;;;5.68;;
40945;SDS011;55635;50.264;11.918;2023-07-20T03:52:50;14.90;;;6.03;;
40945;SDS011;55635;50.264;11.918;2023-07-20T03:55:31;14.20;;;5.45;;
40945;SDS011;55635;50.264;11.918;2023-07-20T03:58:12;11.40;;;5.22;;
40945;SDS011;55635;50.264;11.918;2023-07-20T04:00:54;12.88;;;5.22;;
40945;SDS011;55635;50.264;11.918;2023-07-20T04:03:35;13.35;;;5.07;;
40945;SDS011;55635;50.264;11.918;2023-07-20T04:06:16;7.15;;;4.82;;
40945;SDS011;55635;50.264;11.918;2023-07-20T04:08:57;13.13;;;6.15;;
40945;SDS011;55635;50.264;11.918;2023-07-20T04:11:38;14.63;;;5.90;;
40945;SDS011;55635;50.264;11.918;2023-07-20T04:14:20;6.40;;;5.70;;
40945;SDS011;55635;50.264;11.918;2023-07-20T04:17:01;12.50;;;5.95;;
40945;SDS011;55635;50.264;11.918;2023-07-20T04:19:42;9.32;;;6.38;;
40945;SDS011;55635;50.264;11.918;2023-07-20T04:22:23;8.95;;;5.60;;
40945;SDS011;55635;50.264;11.918;2023-07-20T04:25:04;9.43;;;5.63;;
40945;SDS011;55635;50.264;11.918;2023-07-20T04:27:46;10.43;;;6.13;;
40945;SDS011;55635;50.264;11.918;2023-07-20T04:30:27;9.50;;;6.68;;
40945;SDS011;55635;50.264;11.918;2023-07-20T04:33:09;10.07;;;6.53;;
40945;SDS011;55635;50.264;11.918;2023-07-20T04:35:52;13.07;;;6.82;;
40945;SDS011;55635;50.264;11.918;2023-07-20T04:38:46;6.45;;;5.85;;
40945;SDS011;55635;50.264;11.918;2023-07-20T04:41:32;10.57;;;7.00;;
40945;SDS011;55635;50.264;11.918;2023-07-20T04:44:13;10.75;;;7.30;;
40945;SDS011;55635;50.264;11.918;2023-07-20T04:46:54;8.60;;;7.70;;
40945;SDS011;55635;50.264;11.918;2023-07-20T04:49:35;10.35;;;7.68;;
40945;SDS011;55635;50.264;11.918;2023-07-20T04:52:16;13.10;;;8.07;;
40945;SDS011;55635;50.264;11.918;2023-07-20T04:54:57;12.07;;;7.57;;
40945;SDS011;55635;50.264;11.918;2023-07-20T04:57:38;11.27;;;8.50;;
40945;SDS011;55635;50.264;11.918;2023-07-20T05:00:19;9.00;;;7.20;;
40945;SDS011;55635;50.264;11.918;2023-07-20T05:03:01;12.20;;;7.70;;
40945;SDS011;55635;50.264;11.918;2023-07-20T05:05:46;10.70;;;8.45;;
40945;SDS011;55635;50.264;11.918;2023-07-20T05:08:29;13.73;;;7.18;;
40945;SDS011;55635;50.264;11.918;2023-07-20T05:11:10;10.80;;;9.10;;
40945;SDS011;55635;50.264;11.918;2023-07-20T05:13:52;10.68;;;8.48;;
40945;SDS011;55635;50.264;11.918;2023-07-20T05:16:33;8.93;;;7.75;;
40945;SDS011;55635;50.264;11.918;2023-07-20T05:19:18;10.45;;;8.30;;
40945;SDS011;55635;50.264;11.918;2023-07-20T05:21:59;11.65;;;8.05;;
40945;SDS011;55635;50.264;11.918;2023-07-20T05:24:40;11.27;;;8.20;;
40945;SDS011;55635;50.264;11.918;2023-07-20T05:27:21;10.57;;;8.68;;
40945;SDS011;55635;50.264;11.918;2023-07-20T05:30:02;10.30;;;8.48;;
40945;SDS011;55635;50.264;11.918;2023-07-20T05:32:44;11.27;;;8.60;;
40945;SDS011;55635;50.264;11.918;2023-07-20T05:35:31;12.07;;;8.38;;
40945;SDS011;55635;50.264;11.918;2023-07-20T05:38:11;11.73;;;7.65;;
40945;SDS011;55635;50.264;11.918;2023-07-20T05:40:52;7.93;;;6.78;;
40945;SDS011;55635;50.264;11.918;2023-07-20T05:43:42;7.78;;;6.85;;
40945;SDS011;55635;50.264;11.918;2023-07-20T05:46:23;6.93;;;6.03;;
40945;SDS011;55635;50.264;11.918;2023-07-20T05:49:04;6.63;;;6.03;;
40945;SDS011;55635;50.264;11.918;2023-07-20T05:51:45;8.52;;;5.75;;
40945;SDS011;55635;50.264;11.918;2023-07-20T05:54:27;6.60;;;5.90;;
40945;SDS011;55635;50.264;11.918;2023-07-20T05:57:10;9.50;;;5.25;;
40945;SDS011;55635;50.264;11.918;2023-07-20T05:59:51;11.27;;;5.13;;
40945;SDS011;55635;50.264;11.918;2023-07-20T06:02:32;8.07;;;5.47;;
40945;SDS011;55635;50.264;11.918;2023-07-20T06:05:13;6.53;;;4.75;;
40945;SDS011;55635;50.264;11.918;2023-07-20T06:07:54;5.45;;;4.55;;
40945;SDS011;55635;50.264;11.918;2023-07-20T06:10:35;8.38;;;4.57;;
40945;SDS011;55635;50.264;11.918;2023-07-20T06:13:16;5.10;;;4.60;;
40945;SDS011;55635;50.264;11.918;2023-07-20T06:15:57;8.98;;;4.75;;
40945;SDS011;55635;50.264;11.918;2023-07-20T06:18:38;5.55;;;5.03;;
40945;SDS011;55635;50.264;11.918;2023-07-20T06:21:19;5.47;;;4.88;;
40945;SDS011;55635;50.264;11.918;2023-07-20T06:24:00;5.40;;;4.90;;
40945;SDS011;55635;50.264;11.918;2023-07-20T06:26:41;5.40;;;4.80;;
40945;SDS011;55635;50.264;11.918;2023-07-20T06:29:22;6.97;;;5.25;;
40945;SDS011;55635;50.264;11.918;2023-07-20T06:32:03;6.78;;;5.35;;
40945;SDS011;55635;50.264;11.918;2023-07-20T06:34:44;6.75;;;4.80;;
40945;SDS011;55635;50.264;11.918;2023-07-20T06:37:25;7.53;;;4.80;;
40945;SDS011;55635;50.264;11.918;2023-07-20T06:40:06;7.75;;;4.78;;
40945;SDS011;55635;50.264;11.918;2023-07-20T06:42:51;7.25;;;4.55;;
40945;SDS011;55635;50.264;11.918;2023-07-20T06:45:32;4.93;;;4.30;;
40945;SDS011;55635;50.264;11.918;2023-07-20T06:48:13;5.93;;;4.57;;
40945;SDS011;55635;50.264;11.918;2023-07-20T06:50:54;5.85;;;4.68;;
40945;SDS011;55635;50.264;11.918;2023-07-20T06:53:35;4.20;;;3.90;;
40945;SDS011;55635;50.264;11.918;2023-07-20T06:56:16;4.90;;;4.50;;
40945;SDS011;55635;50.264;11.918;2023-07-20T06:58:57;8.52;;;4.25;;
40945;SDS011;55635;50.264;11.918;2023-07-20T07:01:38;5.40;;;4.13;;
40945;SDS011;55635;50.264;11.918;2023-07-20T07:04:19;4.32;;;3.92;;
40945;SDS011;55635;50.264;11.918;2023-07-20T07:07:00;6.00;;;3.95;;
40945;SDS011;55635;50.264;11.918;2023-07-20T07:10:02;6.82;;;4.25;;
40945;SDS011;55635;50.264;11.918;2023-07-20T07:12:45;5.03;;;4.50;;
40945;SDS011;55635;50.264;11.918;2023-07-20T07:15:26;5.20;;;4.35;;
40945;SDS011;55635;50.264;11.918;2023-07-20T07:18:07;4.25;;;3.85;;
40945;SDS011;55635;50.264;11.918;2023-07-20T07:20:51;6.97;;;4.28;;
40945;SDS011;55635;50.264;11.918;2023-07-20T07:23:33;4.80;;;4.40;;
40945;SDS011;55635;50.264;11.918;2023-07-20T07:26:14;6.53;;;4.78;;
40945;SDS011;55635;50.264;11.918;2023-07-20T07:28:55;5.07;;;4.57;;
40945;SDS011;55635;50.264;11.918;2023-07-20T07:31:36;8.63;;;4.50;;
40945;SDS011;55635;50.264;11.918;2023-07-20T07:34:18;5.15;;;4.30;;
40945;SDS011;55635;50.264;11.918;2023-07-20T07:36:59;4.90;;;4.07;;
40945;SDS011;55635;50.264;11.918;2023-07-20T07:39:40;5.15;;;3.65;;
40945;SDS011;55635;50.264;11.918;2023-07-20T07:42:21;5.22;;;4.00;;
40945;SDS011;55635;50.264;11.918;2023-07-20T07:45:04;6.53;;;4.32;;
40945;SDS011;55635;50.264;11.918;2023-07-20T07:47:46;5.55;;;4.28;;
40945;SDS011;55635;50.264;11.918;2023-07-20T07:50:27;4.47;;;3.80;;
40945;SDS011;55635;50.264;11.918;2023-07-20T07:53:08;5.57;;;3.72;;
40945;SDS011;55635;50.264;11.918;2023-07-20T07:55:49;6.05;;;3.85;;
40945;SDS011;55635;50.264;11.918;2023-07-20T07:58:31;4.50;;;4.10;;
40945;SDS011;55635;50.264;11.918;2023-07-20T08:01:12;4.22;;;3.67;;
40945;SDS011;55635;50.264;11.918;2023-07-20T08:03:52;11.10;;;4.70;;
40945;SDS011;55635;50.264;11.918;2023-07-20T08:06:33;3.55;;;3.25;;
40945;SDS011;55635;50.264;11.918;2023-07-20T08:09:14;6.18;;;3.80;;
40945;SDS011;55635;50.264;11.918;2023-07-20T08:11:55;4.00;;;3.10;;
40945;SDS011;55635;50.264;11.918;2023-07-20T08:14:36;4.72;;;3.13;;
40945;SDS011;55635;50.264;11.918;2023-07-20T08:17:17;3.42;;;2.50;;
40945;SDS011;55635;50.264;11.918;2023-07-20T08:19:58;2.80;;;2.60;;
40945;SDS011;55635;50.264;11.918;2023-07-20T08:22:39;2.65;;;2.35;;
40945;SDS011;55635;50.264;11.918;2023-07-20T08:25:20;3.42;;;2.80;;
40945;SDS011;55635;50.264;11.918;2023-07-20T08:28:01;2.47;;;2.10;;
40945;SDS011;55635;50.264;11.918;2023-07-20T08:30:43;2.67;;;2.08;;
40945;SDS011;55635;50.264;11.918;2023-07-20T08:33:28;2.03;;;1.77;;
40945;SDS011;55635;50.264;11.918;2023-07-20T08:36:13;3.72;;;2.30;;
40945;SDS011;55635;50.264;11.918;2023-07-20T08:38:54;3.30;;;2.10;;
40945;SDS011;55635;50.264;11.918;2023-07-20T08:41:35;1.60;;;1.50;;
40945;SDS011;55635;50.264;11.918;2023-07-20T08:44:16;5.22;;;1.80;;
40945;SDS011;55635;50.264;11.918;2023-07-20T08:46:57;2.03;;;1.60;;
40945;SDS011;55635;50.264;11.918;2023-07-20T08:49:40;4.65;;;1.90;;
40945;SDS011;55635;50.264;11.918;2023-07-20T08:52:21;3.80;;;2.42;;
40945;SDS011;55635;50.264;11.918;2023-07-20T08:55:02;1.90;;;1.77;;
40945;SDS011;55635;50.264;11.918;2023-07-20T08:57:44;2.55;;;1.67;;
40945;SDS011;55635;50.264;11.918;2023-07-20T09:00:26;3.38;;;1.90;;
40945;SDS011;55635;50.264;11.918;2023-07-20T09:03:09;2.97;;;1.77;;
40945;SDS011;55635;50.264;11.918;2023-07-20T09:05:51;1.80;;;1.60;;
40945;SDS011;55635;50.264;11.918;2023-07-20T09:08:32;3.05;;;1.60;;
40945;SDS011;55635;50.264;11.918;2023-07-20T09:11:13;2.47;;;2.15;;
40945;SDS011;55635;50.264;11.918;2023-07-20T09:14:02;2.95;;;1.90;;
40945;SDS011;55635;50.264;11.918;2023-07-20T09:16:47;3.40;;;2.10;;
40945;SDS011;55635;50.264;11.918;2023-07-20T09:19:31;4.30;;;2.20;;
40945;SDS011;55635;50.264;11.918;2023-07-20T09:22:13;3.38;;;2.38;;
40945;SDS011;55635;50.264;11.918;2023-07-20T09:24:54;3.20;;;2.13;;
40945;SDS011;55635;50.264;11.918;2023-07-20T09:27:36;3.03;;;1.90;;
40945;SDS011;55635;50.264;11.918;2023-07-20T09:30:18;3.00;;;1.75;;
40945;SDS011;55635;50.264;11.918;2023-07-20T09:32:59;3.22;;;1.80;;
40945;SDS011;55635;50.264;11.918;2023-07-20T09:35:40;3.10;;;1.55;;
40945;SDS011;55635;50.264;11.918;2023-07-20T09:38:23;2.85;;;1.83;;
40945;SDS011;55635;50.264;11.918;2023-07-20T09:41:13;6.55;;;1.55;;
40945;SDS011;55635;50.264;11.918;2023-07-20T09:44:01;1.67;;;1.45;;
40945;SDS011;55635;50.264;11.918;2023-07-20T09:46:46;2.88;;;1.48;;
40945;SDS011;55635;50.264;11.918;2023-07-20T09:49:28;2.50;;;1.77;;
40945;SDS011;55635;50.264;11.918;2023-07-20T09:52:09;3.08;;;1.35;;
40945;SDS011;55635;50.264;11.918;2023-07-20T09:54:51;1.85;;;1.27;;
40945;SDS011;55635;50.264;11.918;2023-07-20T09:57:33;2.50;;;1.42;;
40945;SDS011;55635;50.264;11.918;2023-07-20T10:00:15;1.65;;;1.33;;
40945;SDS011;55635;50.264;11.918;2023-07-20T10:02:56;2.05;;;1.45;;
40945;SDS011;55635;50.264;11.918;2023-07-20T10:05:43;2.55;;;1.40;;
40945;SDS011;55635;50.264;11.918;2023-07-20T10:08:28;1.33;;;1.23;;
40945;SDS011;55635;50.264;11.918;2023-07-20T10:11:10;3.22;;;1.60;;
40945;SDS011;55635;50.264;11.918;2023-07-20T10:13:55;3.30;;;1.35;;
40945;SDS011;55635;50.264;11.918;2023-07-20T10:16:39;3.03;;;1.25;;
40945;SDS011;55635;50.264;11.918;2023-07-20T10:19:33;1.88;;;1.13;;
40945;SDS011;55635;50.264;11.918;2023-07-20T10:22:24;4.72;;;2.00;;
40945;SDS011;55635;50.264;11.918;2023-07-20T10:25:09;1.40;;;1.08;;
40945;SDS011;55635;50.264;11.918;2023-07-20T10:27:50;1.45;;;1.20;;
40945;SDS011;55635;50.264;11.918;2023-07-20T10:30:32;2.88;;;1.00;;
40945;SDS011;55635;50.264;11.918;2023-07-20T10:33:18;3.95;;;1.30;;
40945;SDS011;55635;50.264;11.918;2023-07-20T10:36:01;2.63;;;1.70;;
40945;SDS011;55635;50.264;11.918;2023-07-20T10:44:20;2.70;;;1.15;;
40945;SDS011;55635;50.264;11.918;2023-07-20T10:47:02;1.65;;;1.08;;
40945;SDS011;55635;50.264;11.918;2023-07-20T10:49:58;1.02;;;0.90;;
40945;SDS011;55635;50.264;11.918;2023-07-20T10:52:40;1.55;;;1.10;;
40945;SDS011;55635;50.264;11.918;2023-07-20T10:55:21;3.00;;;1.35;;
40945;SDS011;55635;50.264;11.918;2023-07-20T11:01:01;3.13;;;0.93;;
40945;SDS011;55635;50.264;11.918;2023-07-20T11:03:48;0.95;;;0.95;;
40945;SDS011;55635;50.264;11.918;2023-07-20T11:06:33;1.33;;;1.10;;
40945;SDS011;55635;50.264;11.918;2023-07-20T11:09:14;1.73;;;0.80;;
40945;SDS011;55635;50.264;11.918;2023-07-20T11:12:08;3.50;;;1.10;;
40945;SDS011;55635;50.264;11.918;2023-07-20T11:17:37;2.65;;;0.98;;
40945;SDS011;55635;50.264;11.918;2023-07-20T11:20:19;1.40;;;1.30;;
40945;SDS011;55635;50.264;11.918;2023-07-20T11:23:01;5.55;;;1.30;;
40945;SDS011;55635;50.264;11.918;2023-07-20T11:25:42;1.83;;;1.42;;
40945;SDS011;55635;50.264;11.918;2023-07-20T11:28:23;2.75;;;1.00;;
40945;SDS011;55635;50.264;11.918;2023-07-20T11:31:04;0.88;;;0.88;;
40945;SDS011;55635;50.264;11.918;2023-07-20T11:33:46;0.93;;;0.93;;
40945;SDS011;55635;50.264;11.918;2023-07-20T11:36:27;1.98;;;1.02;;
40945;SDS011;55635;50.264;11.918;2023-07-20T11:39:11;1.55;;;1.30;;
40945;SDS011;55635;50.264;11.918;2023-07-20T11:41:59;2.20;;;0.93;;
40945;SDS011;55635;50.264;11.918;2023-07-20T11:44:40;1.45;;;1.17;;
40945;SDS011;55635;50.264;11.918;2023-07-20T11:47:21;1.38;;;1.27;;
40945;SDS011;55635;50.264;11.918;2023-07-20T11:50:03;1.98;;;1.35;;
40945;SDS011;55635;50.264;11.918;2023-07-20T11:52:44;1.50;;;1.20;;
40945;SDS011;55635;50.264;11.918;2023-07-20T11:55:25;1.50;;;1.30;;
40945;SDS011;55635;50.264;11.918;2023-07-20T11:58:07;1.40;;;1.30;;
40945;SDS011;55635;50.264;11.918;2023-07-20T12:00:49;0.73;;;0.73;;
40945;SDS011;55635;50.264;11.918;2023-07-20T12:03:30;1.45;;;1.00;;
40945;SDS011;55635;50.264;11.918;2023-07-20T12:06:13;1.33;;;1.17;;
40945;SDS011;55635;50.264;11.918;2023-07-20T12:08:54;0.98;;;0.98;;
40945;SDS011;55635;50.264;11.918;2023-07-20T12:11:42;1.20;;;1.10;;
40945;SDS011;55635;50.264;11.918;2023-07-20T12:14:27;1.60;;;1.33;;
40945;SDS011;55635;50.264;11.918;2023-07-20T12:17:08;3.88;;;1.10;;
40945;SDS011;55635;50.264;11.918;2023-07-20T12:19:49;1.60;;;1.10;;
40945;SDS011;55635;50.264;11.918;2023-07-20T12:22:39;1.20;;;1.10;;
40945;SDS011;55635;50.264;11.918;2023-07-20T12:25:31;1.42;;;1.33;;
40945;SDS011;55635;50.264;11.918;2023-07-20T12:28:23;1.88;;;1.48;;
40945;SDS011;55635;50.264;11.918;2023-07-20T12:31:04;2.00;;;1.15;;
40945;SDS011;55635;50.264;11.918;2023-07-20T12:33:46;3.65;;;1.50;;
40945;SDS011;55635;50.264;11.918;2023-07-20T12:36:27;2.60;;;1.50;;
40945;SDS011;55635;50.264;11.918;2023-07-20T12:39:08;1.65;;;1.52;;
40945;SDS011;55635;50.264;11.918;2023-07-20T12:41:49;1.63;;;1.30;;
40945;SDS011;55635;50.264;11.918;2023-07-20T12:44:30;1.45;;;1.10;;
40945;SDS011;55635;50.264;11.918;2023-07-20T12:47:11;1.10;;;1.10;;
40945;SDS011;55635;50.264;11.918;2023-07-20T12:49:52;1.45;;;1.00;;
40945;SDS011;55635;50.264;11.918;2023-07-20T12:52:35;1.70;;;1.05;;
40945;SDS011;55635;50.264;11.918;2023-07-20T12:55:18;1.42;;;1.33;;
40945;SDS011;55635;50.264;11.918;2023-07-20T12:58:00;1.20;;;1.20;;
40945;SDS011;55635;50.264;11.918;2023-07-20T13:00:41;5.75;;;1.45;;
40945;SDS011;55635;50.264;11.918;2023-07-20T13:03:21;1.55;;;1.38;;
40945;SDS011;55635;50.264;11.918;2023-07-20T13:06:03;1.25;;;1.17;;
40945;SDS011;55635;50.264;11.918;2023-07-20T13:08:43;1.27;;;1.17;;
40945;SDS011;55635;50.264;11.918;2023-07-20T13:11:24;1.85;;;1.20;;
40945;SDS011;55635;50.264;11.918;2023-07-20T13:14:05;2.33;;;1.20;;
40945;SDS011;55635;50.264;11.918;2023-07-20T13:16:46;1.92;;;1.40;;
40945;SDS011;55635;50.264;11.918;2023-07-20T13:19:27;1.88;;;1.58;;
40945;SDS011;55635;50.264;11.918;2023-07-20T13:22:08;1.50;;;1.40;;
40945;SDS011;55635;50.264;11.918;2023-07-20T13:24:49;1.30;;;1.20;;
40945;SDS011;55635;50.264;11.918;2023-07-20T13:27:30;2.47;;;1.40;;
40945;SDS011;55635;50.264;11.918;2023-07-20T13:30:11;1.27;;;1.27;;
40945;SDS011;55635;50.264;11.918;2023-07-20T13:32:56;1.23;;;1.13;;
40945;SDS011;55635;50.264;11.918;2023-07-20T13:35:37;1.60;;;1.50;;
40945;SDS011;55635;50.264;11.918;2023-07-20T13:38:18;1.50;;;1.20;;
40945;SDS011;55635;50.264;11.918;2023-07-20T13:40:59;3.15;;;2.35;;
40945;SDS011;55635;50.264;11.918;2023-07-20T13:43:40;4.10;;;2.53;;
40945;SDS011;55635;50.264;11.918;2023-07-20T13:46:21;2.45;;;2.35;;
40945;SDS011;55635;50.264;11.918;2023-07-20T13:49:02;3.33;;;3.03;;
40945;SDS011;55635;50.264;11.918;2023-07-20T13:51:43;3.95;;;2.70;;
40945;SDS011;55635;50.264;11.918;2023-07-20T13:54:26;5.93;;;2.70;;
40945;SDS011;55635;50.264;11.918;2023-07-20T13:57:07;3.00;;;2.70;;
40945;SDS011;55635;50.264;11.918;2023-07-20T13:59:48;3.22;;;2.90;;
40945;SDS011;55635;50.264;11.918;2023-07-20T14:02:29;3.97;;;2.75;;
40945;SDS011;55635;50.264;11.918;2023-07-20T14:05:10;3.55;;;2.90;;
40945;SDS011;55635;50.264;11.918;2023-07-20T14:07:51;2.92;;;2.72;;
40945;SDS011;55635;50.264;11.918;2023-07-20T14:10:32;3.40;;;2.38;;
40945;SDS011;55635;50.264;11.918;2023-07-20T14:13:13;2.65;;;2.20;;
40945;SDS011;55635;50.264;11.918;2023-07-20T14:15:54;2.90;;;2.55;;
40945;SDS011;55635;50.264;11.918;2023-07-20T14:18:35;2.10;;;1.88;;
40945;SDS011;55635;50.264;11.918;2023-07-20T14:21:19;3.95;;;1.83;;
40945;SDS011;55635;50.264;11.918;2023-07-20T14:24:01;4.10;;;1.70;;
40945;SDS011;55635;50.264;11.918;2023-07-20T14:26:43;2.50;;;1.73;;
40945;SDS011;55635;50.264;11.918;2023-07-20T14:29:24;1.38;;;1.27;;
40945;SDS011;55635;50.264;11.918;2023-07-20T14:32:05;1.67;;;1.58;;
40945;SDS011;55635;50.264;11.918;2023-07-20T14:34:47;2.17;;;1.60;;
40945;SDS011;55635;50.264;11.918;2023-07-20T14:37:28;1.58;;;1.48;;
40945;SDS011;55635;50.264;11.918;2023-07-20T14:40:09;1.60;;;1.50;;
40945;SDS011;55635;50.264;11.918;2023-07-20T14:42:51;3.15;;;1.30;;
40945;SDS011;55635;50.264;11.918;2023-07-20T14:45:32;1.95;;;1.63;;
40945;SDS011;55635;50.264;11.918;2023-07-20T14:48:13;2.17;;;1.65;;
40945;SDS011;55635;50.264;11.918;2023-07-20T14:50:54;1.55;;;1.45;;
40945;SDS011;55635;50.264;11.918;2023-07-20T14:53:35;3.70;;;1.70;;
40945;SDS011;55635;50.264;11.918;2023-07-20T14:56:16;2.65;;;1.60;;
40945;SDS011;55635;50.264;11.918;2023-07-20T14:58:57;1.73;;;1.33;;
40945;SDS011;55635;50.264;11.918;2023-07-20T15:01:38;1.33;;;1.23;;
40945;SDS011;55635;50.264;11.918;2023-07-20T15:04:19;1.63;;;1.52;;
40945;SDS011;55635;50.264;11.918;2023-07-20T15:06:59;2.53;;;1.80;;
40945;SDS011;55635;50.264;11.918;2023-07-20T15:09:40;2.30;;;1.83;;
40945;SDS011;55635;50.264;11.918;2023-07-20T15:12:21;1.50;;;1.40;;
40945;SDS011;55635;50.264;11.918;2023-07-20T15:15:06;2.42;;;1.52;;
40945;SDS011;55635;50.264;11.918;2023-07-20T15:17:49;1.38;;;1.27;;
40945;SDS011;55635;50.264;11.918;2023-07-20T15:20:30;2.65;;;1.60;;
40945;SDS011;55635;50.264;11.918;2023-07-20T15:23:12;1.73;;;1.63;;
40945;SDS011;55635;50.264;11.918;2023-07-20T15:25:52;1.50;;;1.40;;
40945;SDS011;55635;50.264;11.918;2023-07-20T15:28:34;2.72;;;1.55;;
40945;SDS011;55635;50.264;11.918;2023-07-20T15:31:16;3.08;;;1.52;;
40945;SDS011;55635;50.264;11.918;2023-07-20T15:33:58;1.50;;;1.40;;
40945;SDS011;55635;50.264;11.918;2023-07-20T15:36:38;2.63;;;1.60;;
40945;SDS011;55635;50.264;11.918;2023-07-20T15:39:20;1.40;;;1.30;;
40945;SDS011;55635;50.264;11.918;2023-07-20T15:42:01;1.75;;;1.65;;
40945;SDS011;55635;50.264;11.918;2023-07-20T15:44:43;1.52;;;1.35;;
40945;SDS011;55635;50.264;11.918;2023-07-20T15:47:23;1.70;;;1.60;;
40945;SDS011;55635;50.264;11.918;2023-07-20T15:50:04;3.67;;;1.90;;
40945;SDS011;55635;50.264;11.918;2023-07-20T15:52:47;1.60;;;1.50;;
40945;SDS011;55635;50.264;11.918;2023-07-20T15:55:28;1.65;;;1.55;;
40945;SDS011;55635;50.264;11.918;2023-07-20T15:58:09;1.40;;;1.30;;
40945;SDS011;55635;50.264;11.918;2023-07-20T16:00:54;2.72;;;1.80;;
40945;SDS011;55635;50.264;11.918;2023-07-20T16:03:35;1.45;;;1.35;;
40945;SDS011;55635;50.264;11.918;2023-07-20T16:06:16;2.08;;;1.75;;
40945;SDS011;55635;50.264;11.918;2023-07-20T16:08:57;2.40;;;2.00;;
40945;SDS011;55635;50.264;11.918;2023-07-20T16:11:38;5.28;;;1.52;;
40945;SDS011;55635;50.264;11.918;2023-07-20T16:14:19;2.22;;;1.50;;
40945;SDS011;55635;50.264;11.918;2023-07-20T16:17:00;1.85;;;1.50;;
40945;SDS011;55635;50.264;11.918;2023-07-20T16:19:42;2.10;;;1.50;;
40945;SDS011;55635;50.264;11.918;2023-07-20T16:22:23;1.98;;;1.58;;